createdAt,value
2018-04-25T00:00:13.604Z,16.10
2018-04-25T00:02:42.735Z,16.00
2018-04-25T00:05:10.972Z,16.00
2018-04-25T00:07:40.000Z,15.90
2018-04-25T00:10:08.241Z,15.90
2018-04-25T00:12:37.855Z,15.90
2018-04-25T00:15:06.907Z,15.80
2018-04-25T00:17:35.158Z,15.80
2018-04-25T00:20:03.417Z,15.70
2018-04-25T00:22:32.446Z,15.70
2018-04-25T00:25:00.684Z,15.70
2018-04-25T00:27:29.724Z,15.60
2018-04-25T00:29:57.954Z,15.60
2018-04-25T00:32:26.297Z,15.50
2018-04-25T00:34:54.581Z,15.40
2018-04-25T00:37:22.834Z,15.30
2018-04-25T00:39:51.088Z,15.30
2018-04-25T00:42:20.133Z,15.10
2018-04-25T00:44:48.372Z,15.10
2018-04-25T00:47:17.404Z,15.00
2018-04-25T00:49:45.682Z,15.00
2018-04-25T00:52:13.969Z,15.00
2018-04-25T00:54:42.244Z,15.00
2018-04-25T00:57:10.497Z,15.00
2018-04-25T00:59:38.836Z,15.00
2018-04-25T01:02:07.055Z,15.00
2018-04-25T01:04:35.313Z,15.00
2018-04-25T01:07:04.340Z,15.00
2018-04-25T01:09:32.601Z,14.90
2018-04-25T01:12:01.646Z,14.90
2018-04-25T01:14:30.634Z,14.90
2018-04-25T01:16:58.898Z,14.80
2018-04-25T01:19:27.156Z,14.90
2018-04-25T01:21:55.411Z,14.80
2018-04-25T01:24:24.446Z,14.80
2018-04-25T01:26:53.634Z,14.80
2018-04-25T01:29:23.487Z,14.70
2018-04-25T01:31:53.706Z,14.70
2018-04-25T01:37:41.175Z,14.60
2018-04-25T01:40:09.451Z,14.60
2018-04-25T01:45:37.174Z,14.30
2018-04-25T01:50:57.973Z,14.10
2018-04-25T01:53:38.108Z,14.20
2018-04-25T01:56:24.182Z,14.10
2018-04-25T01:59:10.588Z,14.10
2018-04-25T02:01:44.528Z,14.10
2018-04-25T02:04:12.598Z,14.10
2018-04-25T02:06:40.888Z,14.00
2018-04-25T02:09:09.143Z,13.90
2018-04-25T02:11:37.393Z,13.80
2018-04-25T02:14:05.664Z,13.80
2018-04-25T02:16:33.912Z,13.80
2018-04-25T02:19:02.165Z,13.80
2018-04-25T02:21:30.458Z,13.80
2018-04-25T02:23:58.745Z,13.80
2018-04-25T02:26:27.023Z,13.80
2018-04-25T02:28:55.273Z,13.80
2018-04-25T02:31:23.518Z,13.80
2018-04-25T02:33:51.782Z,13.90
2018-04-25T02:36:20.020Z,13.80
2018-04-25T02:38:48.289Z,13.80
2018-04-25T02:41:16.593Z,13.80
2018-04-25T02:43:44.856Z,13.70
2018-04-25T02:46:13.111Z,13.80
2018-04-25T02:48:42.132Z,13.70
2018-04-25T02:51:10.455Z,13.70
2018-04-25T02:53:38.720Z,13.70
2018-04-25T02:56:06.964Z,13.70
2018-04-25T02:58:36.097Z,13.70
2018-04-25T03:01:04.339Z,13.70
2018-04-25T03:03:33.365Z,13.70
2018-04-25T03:06:01.606Z,13.70
2018-04-25T03:08:30.631Z,13.70
2018-04-25T03:10:58.940Z,13.70
2018-04-25T03:13:27.206Z,13.70
2018-04-25T03:15:55.453Z,13.80
2018-04-25T03:18:24.588Z,13.80
2018-04-25T03:20:52.836Z,13.80
2018-04-25T03:23:21.138Z,13.80
2018-04-25T03:25:49.388Z,13.80
2018-04-25T03:28:18.407Z,13.70
2018-04-25T03:30:46.670Z,13.70
2018-04-25T03:33:15.680Z,13.70
2018-04-25T03:35:43.945Z,13.70
2018-04-25T03:38:12.981Z,13.60
2018-04-25T03:40:41.258Z,13.60
2018-04-25T03:43:09.503Z,13.60
2018-04-25T03:45:38.571Z,13.60
2018-04-25T03:48:06.834Z,13.60
2018-04-25T03:50:35.255Z,13.60
2018-04-25T03:53:04.273Z,13.60
2018-04-25T03:55:32.685Z,13.50
2018-04-25T03:58:00.950Z,13.50
2018-04-25T04:00:29.233Z,13.60
2018-04-25T04:02:57.504Z,13.60
2018-04-25T04:05:25.770Z,13.60
2018-04-25T04:07:54.063Z,13.70
2018-04-25T04:10:22.343Z,13.70
2018-04-25T04:12:50.586Z,13.80
2018-04-25T04:15:19.620Z,13.80
2018-04-25T04:17:47.862Z,13.80
2018-04-25T04:20:16.884Z,13.80
2018-04-25T04:22:45.130Z,13.80
2018-04-25T04:25:13.394Z,13.80
2018-04-25T04:27:43.147Z,13.70
2018-04-25T04:30:11.416Z,13.70
2018-04-25T04:32:40.415Z,13.70
2018-04-25T04:35:09.434Z,13.70
2018-04-25T04:37:37.726Z,13.60
2018-04-25T04:40:05.981Z,13.60
2018-04-25T04:42:34.234Z,13.50
2018-04-25T04:45:02.509Z,13.50
2018-04-25T04:47:30.755Z,13.50
2018-04-25T04:49:59.009Z,13.40
2018-04-25T04:52:27.263Z,13.40
2018-04-25T04:54:56.392Z,13.20
2018-04-25T04:57:24.640Z,13.20
2018-04-25T04:59:53.660Z,13.20
2018-04-25T05:02:21.950Z,13.20
2018-04-25T05:04:56.238Z,13.20
2018-04-25T05:07:25.494Z,13.10
2018-04-25T05:09:53.774Z,13.10
2018-04-25T05:12:22.004Z,13.10
2018-04-25T05:14:50.269Z,13.00
2018-04-25T05:17:19.292Z,13.00
2018-04-25T05:19:47.593Z,13.00
2018-04-25T05:22:15.868Z,13.00
2018-04-25T05:24:44.165Z,13.20
2018-04-25T05:27:12.457Z,13.30
2018-04-25T05:29:40.724Z,13.30
2018-04-25T05:32:09.001Z,13.30
2018-04-25T05:34:37.256Z,13.30
2018-04-25T05:37:05.552Z,13.30
2018-04-25T05:39:33.825Z,13.40
2018-04-25T05:42:02.078Z,13.60
2018-04-25T05:44:31.106Z,13.80
2018-04-25T05:46:59.393Z,13.80
2018-04-25T05:49:27.725Z,13.70
2018-04-25T05:51:55.957Z,13.80
2018-04-25T05:54:24.332Z,13.90
2018-04-25T05:56:52.609Z,14.00
2018-04-25T05:59:20.906Z,14.20
2018-04-25T06:01:49.168Z,14.20
2018-04-25T06:04:17.435Z,14.40
2018-04-25T06:06:45.676Z,14.60
2018-04-25T06:09:14.712Z,15.00
2018-04-25T06:11:42.960Z,15.00
2018-04-25T06:14:11.996Z,15.30
2018-04-25T06:16:40.290Z,15.30
2018-04-25T06:19:08.661Z,15.40
2018-04-25T06:21:36.912Z,15.40
2018-04-25T06:24:05.187Z,15.40
2018-04-25T06:26:34.471Z,15.60
2018-04-25T06:29:02.698Z,15.70
2018-04-25T06:31:30.975Z,15.70
2018-04-25T06:33:59.241Z,15.70
2018-04-25T06:36:27.513Z,15.80
2018-04-25T06:38:56.533Z,15.90
2018-04-25T06:41:24.810Z,15.90
2018-04-25T06:43:53.112Z,16.00
2018-04-25T06:46:21.373Z,16.10
2018-04-25T06:48:49.637Z,16.30
2018-04-25T06:51:18.764Z,16.80
2018-04-25T06:53:47.072Z,16.70
2018-04-25T06:56:16.081Z,17.20
2018-04-25T06:58:44.339Z,17.20
2018-04-25T07:01:12.597Z,17.40
2018-04-25T07:03:40.849Z,17.70
2018-04-25T07:06:09.886Z,18.40
2018-04-25T07:08:38.139Z,18.30
2018-04-25T07:11:06.455Z,18.70
2018-04-25T07:13:34.941Z,19.10
2018-04-25T07:16:03.228Z,19.70
2018-04-25T07:18:31.468Z,20.30
2018-04-25T07:20:59.768Z,20.60
2018-04-25T07:23:28.016Z,21.20
2018-04-25T07:25:57.051Z,22.00
2018-04-25T07:28:25.303Z,22.00
2018-04-25T07:30:53.561Z,22.20
2018-04-25T07:33:22.580Z,22.20
2018-04-25T07:35:50.838Z,22.20
2018-04-25T07:38:19.855Z,22.40
2018-04-25T07:40:48.129Z,22.40
2018-04-25T07:43:16.374Z,23.00
2018-04-25T07:45:44.649Z,23.20
2018-04-25T07:48:12.893Z,23.40
2018-04-25T07:50:41.191Z,23.50
2018-04-25T07:53:09.429Z,23.60
2018-04-25T07:55:37.696Z,23.80
2018-04-25T07:58:06.736Z,24.50
2018-04-25T08:00:35.005Z,24.40
2018-04-25T08:03:03.293Z,24.30
2018-04-25T08:05:31.546Z,23.90
2018-04-25T08:07:59.788Z,23.50
2018-04-25T08:10:28.841Z,23.00
2018-04-25T08:13:08.926Z,23.00
2018-04-25T08:15:49.150Z,22.80
2018-04-25T08:18:29.310Z,22.40
2018-04-25T08:21:12.541Z,21.90
2018-04-25T08:23:40.856Z,22.00
2018-04-25T08:26:09.094Z,22.40
2018-04-25T08:28:37.413Z,22.20
2018-04-25T08:31:05.656Z,22.50
2018-04-25T08:33:33.954Z,22.70
2018-04-25T08:36:02.203Z,23.30
2018-04-25T08:38:30.455Z,23.50
2018-04-25T08:40:59.587Z,24.00
2018-04-25T08:43:28.610Z,23.70
2018-04-25T08:45:56.976Z,23.70
2018-04-25T08:48:25.234Z,23.60
2018-04-25T08:50:53.501Z,24.30
2018-04-25T08:53:22.521Z,25.20
2018-04-25T08:55:50.792Z,25.10
2018-04-25T08:58:19.104Z,25.70
2018-04-25T09:00:47.365Z,26.00
2018-04-25T09:03:15.614Z,26.60
2018-04-25T09:05:44.706Z,28.30
2018-04-25T09:08:12.927Z,28.20
2018-04-25T09:10:41.179Z,28.10
2018-04-25T09:13:09.479Z,27.90
2018-04-25T09:15:37.801Z,28.50
2018-04-25T09:18:06.000Z,28.00
2018-04-25T09:20:35.612Z,27.70
2018-04-25T09:23:04.624Z,27.50
2018-04-25T09:25:32.928Z,27.50
2018-04-25T09:28:01.186Z,27.20
2018-04-25T09:30:30.221Z,27.50
2018-04-25T09:32:58.468Z,27.50
2018-04-25T09:35:26.728Z,27.20
2018-04-25T09:37:55.740Z,26.10
2018-04-25T09:40:24.000Z,26.10
2018-04-25T09:42:53.031Z,24.80
2018-04-25T09:45:21.355Z,24.70
2018-04-25T09:47:49.590Z,23.40
2018-04-25T09:50:17.925Z,22.50
2018-04-25T09:52:46.260Z,22.30
2018-04-25T09:55:14.554Z,21.90
2018-04-25T09:57:42.941Z,21.60
2018-04-25T10:00:11.209Z,21.30
2018-04-25T10:02:39.461Z,21.30
2018-04-25T10:05:07.769Z,21.60
2018-04-25T10:07:36.045Z,21.60
2018-04-25T10:10:04.284Z,21.30
2018-04-25T10:12:33.560Z,20.60
2018-04-25T10:15:01.823Z,20.60
2018-04-25T10:17:30.086Z,20.50
2018-04-25T10:19:58.387Z,20.20
2018-04-25T10:22:26.764Z,20.10
2018-04-25T10:24:55.003Z,19.80
2018-04-25T10:27:23.261Z,19.70
2018-04-25T10:29:52.277Z,19.50
2018-04-25T10:32:20.591Z,19.50
2018-04-25T10:34:48.862Z,19.50
2018-04-25T10:37:17.130Z,19.40
2018-04-25T10:39:45.384Z,19.20
2018-04-25T10:42:14.421Z,18.70
2018-04-25T10:44:42.693Z,18.70
2018-04-25T10:47:10.973Z,18.60
2018-04-25T10:49:39.233Z,18.60
2018-04-25T10:52:08.253Z,18.40
2018-04-25T10:54:36.502Z,18.40
2018-04-25T10:57:05.542Z,18.50
2018-04-25T10:59:33.807Z,18.50
2018-04-25T11:02:02.099Z,18.80
2018-04-25T11:04:30.481Z,19.10
2018-04-25T11:06:59.430Z,19.40
2018-04-25T11:09:28.470Z,19.30
2018-04-25T11:11:56.740Z,19.20
2018-04-25T11:14:25.024Z,19.20
2018-04-25T11:16:54.222Z,18.90
2018-04-25T11:19:22.475Z,18.90
2018-04-25T11:21:51.091Z,18.90
2018-04-25T11:24:19.378Z,18.80
2018-04-25T11:26:47.643Z,18.80
2018-04-25T11:29:15.952Z,18.80
2018-04-25T11:31:44.228Z,18.80
2018-04-25T11:34:12.457Z,18.80
2018-04-25T11:36:41.587Z,18.80
2018-04-25T11:39:09.826Z,18.80
2018-04-25T11:41:38.961Z,18.90
2018-04-25T11:44:07.203Z,18.90
2018-04-25T11:46:35.465Z,19.00
2018-04-25T11:49:03.705Z,19.10
2018-04-25T11:51:31.981Z,19.30
2018-04-25T11:54:00.230Z,19.30
2018-04-25T11:56:29.241Z,19.60
2018-04-25T11:58:57.501Z,19.70
2018-04-25T12:01:26.538Z,20.30
2018-04-25T12:03:54.813Z,20.30
2018-04-25T12:06:23.197Z,20.60
2018-04-25T12:08:51.444Z,21.30
2018-04-25T12:11:19.757Z,21.50
2018-04-25T12:13:48.532Z,21.80
2018-04-25T12:16:16.789Z,22.60
2018-04-25T12:18:45.844Z,22.70
2018-04-25T12:21:14.065Z,22.60
2018-04-25T12:23:43.332Z,22.00
2018-04-25T12:26:12.618Z,21.50
2018-04-25T12:28:41.223Z,21.40
2018-04-25T12:31:09.713Z,21.20
2018-04-25T12:33:38.314Z,21.10
2018-04-25T12:36:06.824Z,20.90
2018-04-25T12:38:36.085Z,20.60
2018-04-25T12:41:04.572Z,20.10
2018-04-25T12:43:33.196Z,19.70
2018-04-25T12:46:01.643Z,19.50
2018-04-25T12:48:30.231Z,19.30
2018-04-25T12:50:59.531Z,19.00
2018-04-25T12:53:28.126Z,19.00
2018-04-25T12:55:56.708Z,19.40
2018-04-25T12:58:26.831Z,20.40
2018-04-25T13:00:56.024Z,20.70
2018-04-25T13:03:24.616Z,20.70
2018-04-25T13:05:53.006Z,21.00
2018-04-25T13:08:21.470Z,21.30
2018-04-25T13:10:49.968Z,21.80
2018-04-25T13:13:18.379Z,22.70
2018-04-25T13:15:47.700Z,22.80
2018-04-25T13:18:20.234Z,22.80
2018-04-25T13:20:48.924Z,22.50
2018-04-25T13:23:17.438Z,21.80
2018-04-25T13:25:45.894Z,20.90
2018-04-25T13:28:14.424Z,20.40
2018-04-25T13:30:42.893Z,20.20
2018-04-25T13:33:11.321Z,19.90
2018-04-25T13:35:39.930Z,19.50
2018-04-25T13:38:08.358Z,19.40
2018-04-25T13:40:37.106Z,19.10
2018-04-25T13:43:05.606Z,18.80
2018-04-25T13:45:34.283Z,18.60
2018-04-25T13:48:03.586Z,18.00
2018-04-25T13:50:32.171Z,18.00
2018-04-25T13:53:00.762Z,18.00
2018-04-25T13:55:30.062Z,18.10
2018-04-25T13:57:58.649Z,18.10
2018-04-25T14:00:27.339Z,18.20
2018-04-25T14:02:56.502Z,18.20
2018-04-25T14:05:26.047Z,18.10
2018-04-25T14:07:54.366Z,18.10
2018-04-25T14:10:23.493Z,18.10
2018-04-25T14:12:51.743Z,18.10
2018-04-25T14:15:20.774Z,18.20
2018-04-25T14:17:49.045Z,18.20
2018-04-25T14:20:17.340Z,18.20
2018-04-25T14:22:45.594Z,18.30
2018-04-25T14:25:13.893Z,18.30
2018-04-25T14:27:43.004Z,18.40
2018-04-25T14:30:11.306Z,18.40
2018-04-25T14:32:39.497Z,18.60
2018-04-25T14:35:07.820Z,18.60
2018-04-25T14:37:36.072Z,18.70
2018-04-25T14:40:05.097Z,18.70
2018-04-25T14:42:33.365Z,18.60
2018-04-25T14:45:01.700Z,18.70
2018-04-25T14:47:29.937Z,18.80
2018-04-25T14:49:58.180Z,18.80
2018-04-25T14:52:27.212Z,18.90
2018-04-25T14:54:55.497Z,18.90
2018-04-25T14:57:23.785Z,18.90
2018-04-25T14:59:52.029Z,19.00
2018-04-25T15:02:20.289Z,19.00
2018-04-25T15:04:49.328Z,19.10
2018-04-25T15:07:17.609Z,19.10
2018-04-25T15:09:45.857Z,19.00
2018-04-25T15:12:14.924Z,19.10
2018-04-25T15:14:43.169Z,19.10
2018-04-25T15:17:11.450Z,19.30
2018-04-25T15:19:39.696Z,19.30
2018-04-25T15:22:08.701Z,19.40
2018-04-25T15:24:36.942Z,19.40
2018-04-25T15:27:05.213Z,19.30
2018-04-25T15:29:33.453Z,19.30
2018-04-25T15:32:01.711Z,19.30
2018-04-25T15:34:29.952Z,19.20
2018-04-25T15:36:58.314Z,19.10
2018-04-25T15:39:26.573Z,19.10
2018-04-25T15:41:54.859Z,19.00
2018-04-25T15:44:23.095Z,18.90
2018-04-25T15:46:52.127Z,18.60
2018-04-25T15:49:20.403Z,18.60
2018-04-25T15:51:48.662Z,18.60
2018-04-25T15:54:17.660Z,18.50
2018-04-25T15:56:45.968Z,18.50
2018-04-25T15:59:14.253Z,18.60
2018-04-25T16:01:42.570Z,18.60
2018-04-25T16:04:10.796Z,18.60
2018-04-25T16:06:39.037Z,18.50
2018-04-25T16:09:07.373Z,18.50
2018-04-25T16:11:35.690Z,18.50
2018-04-25T16:14:03.969Z,18.50
2018-04-25T16:16:32.227Z,18.50
2018-04-25T16:19:00.483Z,18.50
2018-04-25T16:21:28.775Z,18.50
2018-04-25T16:23:57.024Z,18.40
2018-04-25T16:26:25.332Z,18.20
2018-04-25T16:28:53.591Z,17.90
2018-04-25T16:31:21.890Z,17.90
2018-04-25T16:33:50.194Z,17.80
2018-04-25T16:36:18.432Z,17.70
2018-04-25T16:38:47.508Z,17.70
2018-04-25T16:41:16.544Z,17.50
2018-04-25T16:43:44.926Z,17.40
2018-04-25T16:46:13.161Z,17.30
2018-04-25T16:48:42.192Z,17.10
2018-04-25T16:51:10.483Z,17.20
2018-04-25T16:53:38.756Z,17.00
2018-04-25T16:56:06.994Z,16.90
2018-04-25T16:58:36.009Z,17.00
2018-04-25T17:01:04.249Z,16.90
2018-04-25T17:03:34.018Z,16.80
2018-04-25T17:06:02.252Z,16.80
2018-04-25T17:08:31.346Z,16.90
2018-04-25T17:10:59.529Z,16.90
2018-04-25T17:13:27.783Z,16.90
2018-04-25T17:15:56.033Z,16.90
2018-04-25T17:18:24.297Z,16.80
2018-04-25T17:20:52.532Z,16.80
2018-04-25T17:23:20.864Z,16.80
2018-04-25T17:25:49.158Z,16.80
2018-04-25T17:28:17.432Z,16.90
2018-04-25T17:30:45.702Z,16.90
2018-04-25T17:33:13.990Z,17.00
2018-04-25T17:35:42.252Z,17.00
2018-04-25T17:38:11.264Z,16.80
2018-04-25T17:40:39.496Z,16.80
2018-04-25T17:43:08.541Z,16.80
2018-04-25T17:45:36.821Z,16.80
2018-04-25T17:48:05.101Z,16.80
2018-04-25T17:50:33.415Z,16.70
2018-04-25T17:53:01.644Z,16.70
2018-04-25T17:55:29.888Z,16.60
2018-04-25T17:57:58.932Z,16.60
2018-04-25T18:00:27.208Z,16.50
2018-04-25T18:02:55.472Z,16.50
2018-04-25T18:05:24.879Z,16.50
2018-04-25T18:07:53.185Z,16.50
2018-04-25T18:10:21.420Z,16.40
2018-04-25T18:12:50.456Z,16.30
2018-04-25T18:15:18.778Z,16.30
2018-04-25T18:17:47.118Z,16.30
2018-04-25T18:20:15.360Z,16.20
2018-04-25T18:22:44.401Z,16.30
2018-04-25T18:25:12.684Z,16.30
2018-04-25T18:27:40.939Z,16.30
2018-04-25T18:30:09.176Z,16.40
2018-04-25T18:32:37.520Z,16.30
2018-04-25T18:35:05.786Z,16.30
2018-04-25T18:37:34.080Z,16.30
2018-04-25T18:40:03.122Z,16.40
2018-04-25T18:42:32.127Z,16.40
2018-04-25T18:45:01.148Z,16.40
2018-04-25T18:47:29.442Z,16.40
2018-04-25T18:49:57.697Z,16.40
2018-04-25T18:52:26.705Z,16.40
2018-04-25T18:54:55.000Z,16.40
2018-04-25T18:57:23.249Z,16.40
2018-04-25T18:59:52.372Z,16.50
2018-04-25T19:02:20.619Z,16.50
2018-04-25T19:04:49.648Z,16.40
2018-04-25T19:07:17.884Z,16.40
2018-04-25T19:09:46.896Z,16.30
2018-04-25T19:12:15.897Z,16.30
2018-04-25T19:14:44.937Z,16.20
2018-04-25T19:17:13.173Z,16.20
2018-04-25T19:19:42.193Z,16.10
2018-04-25T19:22:10.576Z,16.00
2018-04-25T19:24:38.837Z,16.10
2018-04-25T19:27:07.136Z,16.20
2018-04-25T19:29:35.417Z,16.20
2018-04-25T19:32:03.702Z,16.20
2018-04-25T19:34:31.957Z,16.30
2018-04-25T19:37:00.295Z,16.20
2018-04-25T19:39:29.353Z,16.10
2018-04-25T19:41:57.598Z,16.10
2018-04-25T19:44:26.670Z,16.00
2018-04-25T19:46:54.903Z,16.00
2018-04-25T19:49:23.206Z,15.90
2018-04-25T19:51:51.472Z,16.00
2018-04-25T19:54:19.724Z,16.00
2018-04-25T19:56:48.725Z,15.90
2018-04-25T19:59:17.001Z,15.90
2018-04-25T20:01:46.077Z,15.90
2018-04-25T20:04:14.331Z,15.90
2018-04-25T20:06:42.589Z,15.80
2018-04-25T20:09:10.841Z,15.80
2018-04-25T20:11:39.869Z,15.70
2018-04-25T20:14:08.172Z,15.70
2018-04-25T20:16:36.404Z,15.60
2018-04-25T20:19:05.423Z,15.60
2018-04-25T20:21:33.747Z,15.50
2018-04-25T20:24:02.085Z,15.60
2018-04-25T20:26:30.320Z,15.60
2018-04-25T20:28:59.351Z,15.50
2018-04-25T20:31:27.635Z,15.40
2018-04-25T20:33:55.926Z,15.50
2018-04-25T20:36:24.170Z,15.40
2018-04-25T20:38:53.189Z,15.40
2018-04-25T20:41:21.424Z,15.40
2018-04-25T20:43:49.693Z,15.30
2018-04-25T20:46:17.929Z,15.30
2018-04-25T20:48:46.236Z,15.30
2018-04-25T20:51:14.593Z,15.30
2018-04-25T20:53:42.858Z,15.30
2018-04-25T20:56:11.145Z,15.30
2018-04-25T20:58:39.981Z,15.20
2018-04-25T21:01:08.217Z,15.20
2018-04-25T21:03:36.473Z,15.20
2018-04-25T21:06:04.727Z,15.10
2018-04-25T21:08:32.972Z,15.00
2018-04-25T21:11:01.265Z,15.00
2018-04-25T21:13:29.505Z,14.90
2018-04-25T21:15:57.746Z,14.80
2018-04-25T21:18:26.767Z,14.70
2018-04-25T21:20:55.922Z,14.50
2018-04-25T21:23:25.224Z,14.50
2018-04-25T21:25:53.714Z,14.50
2018-04-25T21:28:22.342Z,14.40
2018-04-25T21:30:50.756Z,14.30
2018-04-25T21:33:19.821Z,14.20
2018-04-25T21:35:48.091Z,14.20
2018-04-25T21:38:17.218Z,14.20
2018-04-25T21:40:45.501Z,14.10
2018-04-25T21:43:14.748Z,14.10
2018-04-25T21:45:43.013Z,14.00
2018-04-25T21:48:12.808Z,13.90
2018-04-25T21:50:41.169Z,13.90
2018-04-25T21:53:09.422Z,13.90
2018-04-25T21:55:37.735Z,13.90
2018-04-25T21:58:06.019Z,13.80
2018-04-25T22:00:34.998Z,13.70
2018-04-25T22:03:03.284Z,13.70
2018-04-25T22:05:31.571Z,13.60
2018-04-25T22:07:59.806Z,13.50
2018-04-25T22:10:28.838Z,13.50
2018-04-25T22:12:57.084Z,13.40
2018-04-25T22:15:26.109Z,13.30
2018-04-25T22:17:54.336Z,13.30
2018-04-25T22:20:22.690Z,13.20
2018-04-25T22:22:50.960Z,13.20
2018-04-25T22:25:19.217Z,13.20
2018-04-25T22:27:47.481Z,13.20
2018-04-25T22:30:15.792Z,13.10
2018-04-25T22:32:44.036Z,13.10
2018-04-25T22:35:13.075Z,13.10
2018-04-25T22:37:41.308Z,13.10
2018-04-25T22:40:10.340Z,13.00
2018-04-25T22:42:38.571Z,13.00
2018-04-25T22:45:06.903Z,12.90
2018-04-25T22:47:35.211Z,12.80
2018-04-25T22:50:03.489Z,12.80
2018-04-25T22:52:31.737Z,12.80
2018-04-25T22:54:59.990Z,12.70
2018-04-25T22:57:28.309Z,12.80
2018-04-25T22:59:57.376Z,12.80
2018-04-25T23:02:26.385Z,12.80
2018-04-25T23:04:54.644Z,12.80
2018-04-25T23:07:23.648Z,12.80
2018-04-25T23:09:52.668Z,12.80
2018-04-25T23:12:20.921Z,12.80
2018-04-25T23:14:49.940Z,12.80
2018-04-25T23:17:18.181Z,12.80
2018-04-25T23:19:46.435Z,12.80
2018-04-25T23:22:14.687Z,12.80
2018-04-25T23:24:42.941Z,12.80
2018-04-25T23:27:11.247Z,12.80
2018-04-25T23:29:39.541Z,12.80
2018-04-25T23:32:07.782Z,12.70
2018-04-25T23:34:36.037Z,12.80
2018-04-25T23:37:05.046Z,12.80
2018-04-25T23:39:34.077Z,12.80
2018-04-25T23:42:02.358Z,12.80
2018-04-25T23:44:30.611Z,12.80
2018-04-25T23:46:59.637Z,12.80
2018-04-25T23:49:27.920Z,12.70
2018-04-25T23:51:56.205Z,12.60
2018-04-25T23:54:24.452Z,12.60
2018-04-25T23:56:53.466Z,12.70
2018-04-25T23:59:21.733Z,12.70
